الصفحة الرئيسية
METAR-TAF:

METAR-TAF

مطار :

Hagåtña, غوام, الولايات المتحدة

مطار أنتونيو بي وان بات الدولي

دائرة عرض: 13-29N, خط طول: 144-48E, ارتفاع: 91 متر

مراقبة الطقس الحالي

تاريخ ووقت الإصدار 17 دقيقة قبل الساعة 06:54UTC
ريح 16 عقدة من الشرق/الشمال الشرقي
درجة الحرارة 29°درجة مئوية
الرطوبة 70%
ضغط 1011 hPa
الرؤية: 16.1 كم
غيوم قليلة على ارتفاع 2900 قدم

METAR: PGUM 190654Z 07016KT 10SM FEW029 29/23 A2985 RMK AO2 PK WND 06026/0602 SLP098 T02940228

زمن: 17:11 (07:11 UTC)

توقعات

تاريخ ووقت الإصدار 1ساعة و 51 دقيقة قبل الساعة 05:20UTC
التوقعات صالحة من19 الساعة 06 UTC إلى 20 الساعة 12 UTC
ريح 17 عقدة من الشرق/الشمال الشرقي تتزايد حتى 25 عقدة
الرؤية: 10 كم
غيوم متفرقة على ارتفاع 2500 قدم
من 19 الساعة 0900 UTC
ريح 9 عقدة من الشرق/الشمال الشرقي
الرؤية: 10 كم
غيوم قليلة على ارتفاع 2200 قدم

TAF: PGUM 190520Z 1906/2012 07017G25KT P6SM SCT025 FM190900 07009KT P6SM FEW022

أرصاد الطقس والتوقعات من أكثر من 4000 مطار (تقارير الطقس للمطار METAR والتنبؤ بالطقس بالمطارTAF).

المحطات المتاحة هي النقط الصفراء والحمراء على الخريطة.

حرك المؤشر فوق النقطة لمعرفة اسم المحطة.

ثم انقر لمعرفة أرصاد وتوقعات الطقس.

لتغيير الخارطة: اضغط على الأزرار الخضراء مع رمز الصليب الأسود للتكبير. على الزر الأخضر مع شرطة للتصغير، أو على الأسهم الخضراء للخرائط المجاورة.


METAR-TAF: